Main page
METAR-TAF:

METAR-TAF

Airports :

Fujairah International Airport

Fujairah, United Arab Emirates

latitude: 25-06N, longitude: 056-20E, elevation: 28 m

Current weather observation

The report was made 51 minutes ago, at 01:00 UTC
Wind 9 kt from the West, varying between West/Southwest and Northwest
Temperature 18°C
Humidity 52%
Pressure 1017 hPa
Visibility: 7000 m
Few clouds at a height of 1500 ft

METAR: OMFJ 200100Z 28009KT 240V310 7000 FEW015 18/08 Q1016 A3002

Time: 05:51 (01:51 UTC)

Forecast

The report was made 2 hours and 51 minutes ago, at 23:00 UTC
Forecast valid from 20 at 00 UTC to 21 at 06 UTC
Wind 12 kt from the West/Northwest
Visibility: 7000 m
Probability 30%
from 20 at 02 UTC to 20 at 08 UTC
Wind 5 kt from the West
Temporary
from 20 at 08 UTC to 20 at 22 UTC
Wind 16 kt from the West/Northwest with gusts up to 26 kt
Visibility: 4000 m
Blowing dust

TAF: OMFJ 192300Z 2000/2106 29012KT 7000 NSC PROB30 2002/2008 26005KT TEMPO 2008/2022 30016G26KT 4000 BLDU

Weather observations and forecasts of more than 4000 airports (METAR and TAF reports).

The available stations are represented by yellow and red dots on the map.

Hover mouse over dot to see the name of the station.

Then click to see weather observations and forecasts.

To change the map : click on the green buttons with a black cross to zoom in, on the green button with a dash to zoom out, or on the green arrows for adjacent maps.


METAR-TAF: